sensor_id;sensor_type;location;lat;lon;timestamp;pressure;altitude;pressure_sealevel;temperature;humidity
43878;BME280;29815;48.184;11.268;2022-08-23T00:01:42;95526.94;;;10.37;100.00
43878;BME280;29815;48.184;11.268;2022-08-23T00:04:17;95521.03;;;10.35;100.00
43878;BME280;29815;48.184;11.268;2022-08-23T00:06:49;95522.09;;;10.34;100.00
43878;BME280;29815;48.184;11.268;2022-08-23T00:09:22;95521.84;;;10.31;100.00
43878;BME280;29815;48.184;11.268;2022-08-23T00:12:06;95523.19;;;10.28;100.00
43878;BME280;29815;48.184;11.268;2022-08-23T00:14:42;95527.19;;;10.26;100.00
43878;BME280;29815;48.184;11.268;2022-08-23T00:17:14;95525.31;;;10.26;100.00
43878;BME280;29815;48.184;11.268;2022-08-23T00:20:02;95524.78;;;10.24;100.00
43878;BME280;29815;48.184;11.268;2022-08-23T00:22:34;95528.28;;;10.20;100.00
43878;BME280;29815;48.184;11.268;2022-08-23T00:25:07;95526.38;;;10.20;100.00
43878;BME280;29815;48.184;11.268;2022-08-23T00:27:40;95520.69;;;10.16;100.00
43878;BME280;29815;48.184;11.268;2022-08-23T00:30:17;95513.16;;;10.13;100.00
43878;BME280;29815;48.184;11.268;2022-08-23T00:32:49;95515.34;;;10.11;100.00
43878;BME280;29815;48.184;11.268;2022-08-23T00:35:25;95515.59;;;10.10;100.00
43878;BME280;29815;48.184;11.268;2022-08-23T00:37:56;95514.53;;;10.06;100.00
43878;BME280;29815;48.184;11.268;2022-08-23T00:40:48;95516.66;;;10.04;100.00
43878;BME280;29815;48.184;11.268;2022-08-23T00:43:23;95516.13;;;10.02;100.00
43878;BME280;29815;48.184;11.268;2022-08-23T00:46:25;95513.97;;;9.99;100.00
43878;BME280;29815;48.184;11.268;2022-08-23T00:49:16;95519.59;;;9.97;100.00
43878;BME280;29815;48.184;11.268;2022-08-23T00:51:49;95509.66;;;9.93;100.00
43878;BME280;29815;48.184;11.268;2022-08-23T00:54:23;95510.44;;;9.88;100.00
43878;BME280;29815;48.184;11.268;2022-08-23T00:56:57;95516.09;;;9.87;100.00
43878;BME280;29815;48.184;11.268;2022-08-23T00:59:30;95520.94;;;9.84;100.00
43878;BME280;29815;48.184;11.268;2022-08-23T01:02:00;95517.16;;;9.80;100.00
43878;BME280;29815;48.184;11.268;2022-08-23T01:04:37;95524.94;;;9.77;100.00
43878;BME280;29815;48.184;11.268;2022-08-23T01:07:14;95530.31;;;9.77;100.00
43878;BME280;29815;48.184;11.268;2022-08-23T01:09:48;95538.66;;;9.80;100.00
43878;BME280;29815;48.184;11.268;2022-08-23T01:12:23;95535.69;;;9.72;100.00
43878;BME280;29815;48.184;11.268;2022-08-23T01:15:05;95537.28;;;9.68;100.00
43878;BME280;29815;48.184;11.268;2022-08-23T01:17:44;95545.59;;;9.66;100.00
43878;BME280;29815;48.184;11.268;2022-08-23T01:20:23;95545.06;;;9.64;100.00
43878;BME280;29815;48.184;11.268;2022-08-23T01:22:58;95539.91;;;9.58;100.00
43878;BME280;29815;48.184;11.268;2022-08-23T01:25:33;95542.34;;;9.54;100.00
43878;BME280;29815;48.184;11.268;2022-08-23T01:28:03;95544.50;;;9.52;100.00
43878;BME280;29815;48.184;11.268;2022-08-23T01:30:33;95539.66;;;9.49;100.00
43878;BME280;29815;48.184;11.268;2022-08-23T01:33:05;95543.13;;;9.49;100.00
43878;BME280;29815;48.184;11.268;2022-08-23T01:35:36;95533.19;;;9.50;100.00
43878;BME280;29815;48.184;11.268;2022-08-23T01:38:09;95539.66;;;9.49;100.00
43878;BME280;29815;48.184;11.268;2022-08-23T01:40:42;95540.72;;;9.48;100.00
43878;BME280;29815;48.184;11.268;2022-08-23T01:43:13;95539.34;;;9.45;100.00
43878;BME280;29815;48.184;11.268;2022-08-23T01:45:46;95546.34;;;9.46;100.00
43878;BME280;29815;48.184;11.268;2022-08-23T01:48:19;95548.75;;;9.43;100.00
43878;BME280;29815;48.184;11.268;2022-08-23T01:50:50;95546.03;;;9.38;100.00
43878;BME280;29815;48.184;11.268;2022-08-23T02:33:14;95561.94;;;8.97;100.00
43878;BME280;29815;48.184;11.268;2022-08-23T02:35:44;95564.63;;;8.97;100.00
43878;BME280;29815;48.184;11.268;2022-08-23T02:38:16;95564.88;;;8.96;100.00
43878;BME280;29815;48.184;11.268;2022-08-23T02:40:46;95575.91;;;8.99;100.00
43878;BME280;29815;48.184;11.268;2022-08-23T02:43:28;95571.63;;;8.98;100.00
43878;BME280;29815;48.184;11.268;2022-08-23T02:45:58;95579.38;;;8.95;100.00
43878;BME280;29815;48.184;11.268;2022-08-23T02:48:29;95580.69;;;8.92;100.00
43878;BME280;29815;48.184;11.268;2022-08-23T02:51:06;95586.03;;;8.87;100.00
43878;BME280;29815;48.184;11.268;2022-08-23T02:53:37;95580.09;;;8.85;100.00
43878;BME280;29815;48.184;11.268;2022-08-23T02:56:11;95576.34;;;8.86;100.00
43878;BME280;29815;48.184;11.268;2022-08-23T02:58:50;95580.91;;;8.86;100.00
43878;BME280;29815;48.184;11.268;2022-08-23T03:01:25;95576.88;;;8.83;100.00
43878;BME280;29815;48.184;11.268;2022-08-23T03:04:08;95581.16;;;8.84;100.00
43878;BME280;29815;48.184;11.268;2022-08-23T03:06:38;95575.81;;;8.84;100.00
43878;BME280;29815;48.184;11.268;2022-08-23T03:09:09;95574.44;;;8.81;100.00
43878;BME280;29815;48.184;11.268;2022-08-23T03:11:44;95583.31;;;8.82;100.00
43878;BME280;29815;48.184;11.268;2022-08-23T03:14:15;95582.75;;;8.80;100.00
43878;BME280;29815;48.184;11.268;2022-08-23T03:16:45;95588.38;;;8.78;100.00
43878;BME280;29815;48.184;11.268;2022-08-23T03:19:16;95585.44;;;8.80;100.00
43878;BME280;29815;48.184;11.268;2022-08-23T03:21:46;95585.72;;;8.83;100.00
43878;BME280;29815;48.184;11.268;2022-08-23T03:24:18;95602.13;;;8.87;100.00
43878;BME280;29815;48.184;11.268;2022-08-23T03:26:48;95593.28;;;8.87;100.00
43878;BME280;29815;48.184;11.268;2022-08-23T03:29:18;95597.56;;;8.88;100.00
43878;BME280;29815;48.184;11.268;2022-08-23T03:31:59;95595.41;;;8.85;100.00
43878;BME280;29815;48.184;11.268;2022-08-23T03:34:33;95589.22;;;8.84;100.00
43878;BME280;29815;48.184;11.268;2022-08-23T03:37:03;95593.53;;;8.85;100.00
43878;BME280;29815;48.184;11.268;2022-08-23T03:39:33;95600.22;;;8.82;100.00
43878;BME280;29815;48.184;11.268;2022-08-23T03:42:03;95599.09;;;8.78;100.00
43878;BME280;29815;48.184;11.268;2022-08-23T03:44:34;95604.47;;;8.78;100.00
43878;BME280;29815;48.184;11.268;2022-08-23T03:47:04;95605.28;;;8.79;100.00
43878;BME280;29815;48.184;11.268;2022-08-23T03:49:37;95611.47;;;8.79;100.00
43878;BME280;29815;48.184;11.268;2022-08-23T03:52:07;95608.78;;;8.79;100.00
43878;BME280;29815;48.184;11.268;2022-08-23T03:54:38;95613.84;;;8.76;100.00
43878;BME280;29815;48.184;11.268;2022-08-23T03:57:10;95611.44;;;8.74;100.00
43878;BME280;29815;48.184;11.268;2022-08-23T03:59:40;95614.63;;;8.71;100.00
43878;BME280;29815;48.184;11.268;2022-08-23T04:02:12;95618.38;;;8.70;100.00
43878;BME280;29815;48.184;11.268;2022-08-23T04:04:43;95615.16;;;8.68;100.00
43878;BME280;29815;48.184;11.268;2022-08-23T04:07:31;95616.47;;;8.66;100.00
43878;BME280;29815;48.184;11.268;2022-08-23T04:10:04;95616.72;;;8.64;100.00
43878;BME280;29815;48.184;11.268;2022-08-23T04:12:38;95622.88;;;8.65;100.00
43878;BME280;29815;48.184;11.268;2022-08-23T04:15:13;95618.84;;;8.62;100.00
43878;BME280;29815;48.184;11.268;2022-08-23T04:17:43;95620.47;;;8.63;100.00
43878;BME280;29815;48.184;11.268;2022-08-23T04:20:14;95616.16;;;8.62;100.00
43878;BME280;29815;48.184;11.268;2022-08-23T04:23:02;95625.28;;;8.61;100.00
43878;BME280;29815;48.184;11.268;2022-08-23T04:25:40;95625.81;;;8.63;100.00
43878;BME280;29815;48.184;11.268;2022-08-23T04:28:12;95618.59;;;8.64;100.00
43878;BME280;29815;48.184;11.268;2022-08-23T04:30:42;95630.13;;;8.64;100.00
43878;BME280;29815;48.184;11.268;2022-08-23T04:33:15;95626.63;;;8.64;100.00
43878;BME280;29815;48.184;11.268;2022-08-23T04:35:50;95619.41;;;8.64;100.00
43878;BME280;29815;48.184;11.268;2022-08-23T04:38:21;95621.81;;;8.66;100.00
43878;BME280;29815;48.184;11.268;2022-08-23T04:40:59;95620.75;;;8.67;100.00
43878;BME280;29815;48.184;11.268;2022-08-23T04:43:47;95619.16;;;8.66;100.00
43878;BME280;29815;48.184;11.268;2022-08-23T04:46:17;95622.38;;;8.68;100.00
43878;BME280;29815;48.184;11.268;2022-08-23T04:48:47;95631.78;;;8.70;100.00
43878;BME280;29815;48.184;11.268;2022-08-23T04:51:20;95629.41;;;8.74;100.00
43878;BME280;29815;48.184;11.268;2022-08-23T04:53:50;95629.13;;;8.75;100.00
43878;BME280;29815;48.184;11.268;2022-08-23T04:56:32;95626.19;;;8.77;100.00
43878;BME280;29815;48.184;11.268;2022-08-23T04:59:01;95633.19;;;8.78;100.00
43878;BME280;29815;48.184;11.268;2022-08-23T05:01:32;95632.94;;;8.79;100.00
43878;BME280;29815;48.184;11.268;2022-08-23T05:04:03;95634.53;;;8.80;100.00
43878;BME280;29815;48.184;11.268;2022-08-23T05:06:37;95636.47;;;8.85;100.00
43878;BME280;29815;48.184;11.268;2022-08-23T05:09:07;95638.63;;;8.88;100.00
43878;BME280;29815;48.184;11.268;2022-08-23T05:11:37;95648.59;;;8.93;100.00
43878;BME280;29815;48.184;11.268;2022-08-23T05:14:07;95647.03;;;8.97;100.00
43878;BME280;29815;48.184;11.268;2022-08-23T05:16:36;95654.56;;;9.00;100.00
43878;BME280;29815;48.184;11.268;2022-08-23T05:19:09;95652.97;;;9.04;100.00
43878;BME280;29815;48.184;11.268;2022-08-23T05:21:44;95657.56;;;9.08;100.00
43878;BME280;29815;48.184;11.268;2022-08-23T05:24:15;95661.09;;;9.14;100.00
43878;BME280;29815;48.184;11.268;2022-08-23T05:26:47;95664.38;;;9.21;100.00
43878;BME280;29815;48.184;11.268;2022-08-23T05:29:16;95670.09;;;9.30;100.00
43878;BME280;29815;48.184;11.268;2022-08-23T05:31:50;95666.66;;;9.39;100.00
43878;BME280;29815;48.184;11.268;2022-08-23T05:34:23;95664.84;;;9.50;100.00
43878;BME280;29815;48.184;11.268;2022-08-23T05:36:57;95677.00;;;9.63;100.00
43878;BME280;29815;48.184;11.268;2022-08-23T05:39:33;95675.75;;;9.80;100.00
43878;BME280;29815;48.184;11.268;2022-08-23T05:42:13;95675.34;;;10.14;100.00
43878;BME280;29815;48.184;11.268;2022-08-23T05:44:45;95681.91;;;10.38;100.00
43878;BME280;29815;48.184;11.268;2022-08-23T05:47:17;95683.59;;;10.65;100.00
43878;BME280;29815;48.184;11.268;2022-08-23T05:50:10;95690.34;;;10.82;100.00
43878;BME280;29815;48.184;11.268;2022-08-23T05:52:45;95694.09;;;10.97;100.00
43878;BME280;29815;48.184;11.268;2022-08-23T05:55:19;95687.66;;;11.08;100.00
43878;BME280;29815;48.184;11.268;2022-08-23T05:58:15;95694.94;;;11.17;100.00
43878;BME280;29815;48.184;11.268;2022-08-23T06:00:46;95690.34;;;11.33;100.00
43878;BME280;29815;48.184;11.268;2022-08-23T06:03:15;95693.81;;;11.49;100.00
43878;BME280;29815;48.184;11.268;2022-08-23T06:05:46;95694.88;;;11.68;100.00
43878;BME280;29815;48.184;11.268;2022-08-23T06:08:17;95694.31;;;11.76;100.00
43878;BME280;29815;48.184;11.268;2022-08-23T06:10:47;95701.31;;;11.88;100.00
43878;BME280;29815;48.184;11.268;2022-08-23T06:13:24;95699.16;;;11.95;100.00
43878;BME280;29815;48.184;11.268;2022-08-23T06:15:54;95694.00;;;12.03;100.00
43878;BME280;29815;48.184;11.268;2022-08-23T06:18:25;95700.41;;;12.17;100.00
43878;BME280;29815;48.184;11.268;2022-08-23T06:21:04;95695.22;;;12.31;100.00
43878;BME280;29815;48.184;11.268;2022-08-23T06:23:44;95694.91;;;12.38;100.00
43878;BME280;29815;48.184;11.268;2022-08-23T06:26:18;95701.34;;;12.47;100.00
43878;BME280;29815;48.184;11.268;2022-08-23T06:28:54;95702.94;;;12.58;100.00
43878;BME280;29815;48.184;11.268;2022-08-23T06:31:26;95700.97;;;12.69;100.00
43878;BME280;29815;48.184;11.268;2022-08-23T06:34:25;95702.25;;;12.81;100.00
43878;BME280;29815;48.184;11.268;2022-08-23T06:37:22;95705.66;;;12.97;100.00
43878;BME280;29815;48.184;11.268;2022-08-23T06:40:07;95700.19;;;13.07;100.00
43878;BME280;29815;48.184;11.268;2022-08-23T06:42:46;95696.88;;;13.15;100.00
43878;BME280;29815;48.184;11.268;2022-08-23T06:45:21;95702.78;;;13.23;100.00
43878;BME280;29815;48.184;11.268;2022-08-23T06:48:03;95697.03;;;13.34;100.00
43878;BME280;29815;48.184;11.268;2022-08-23T06:50:33;95696.03;;;13.54;100.00
43878;BME280;29815;48.184;11.268;2022-08-23T06:53:21;95699.09;;;13.71;100.00
43878;BME280;29815;48.184;11.268;2022-08-23T06:56:08;95692.91;;;13.95;100.00
43878;BME280;29815;48.184;11.268;2022-08-23T06:58:52;95694.63;;;14.09;100.00
43878;BME280;29815;48.184;11.268;2022-08-23T07:01:50;95697.16;;;14.24;100.00
43878;BME280;29815;48.184;11.268;2022-08-23T07:04:46;95698.34;;;14.42;100.00
43878;BME280;29815;48.184;11.268;2022-08-23T07:07:30;95691.66;;;14.53;100.00
43878;BME280;29815;48.184;11.268;2022-08-23T07:10:12;95695.50;;;14.71;100.00
43878;BME280;29815;48.184;11.268;2022-08-23T07:12:44;95696.97;;;14.82;100.00
43878;BME280;29815;48.184;11.268;2022-08-23T07:15:13;95696.03;;;14.92;100.00
43878;BME280;29815;48.184;11.268;2022-08-23T07:17:45;95700.78;;;15.00;100.00
43878;BME280;29815;48.184;11.268;2022-08-23T07:20:15;95707.44;;;15.27;100.00
43878;BME280;29815;48.184;11.268;2022-08-23T07:22:45;95700.94;;;15.41;100.00
43878;BME280;29815;48.184;11.268;2022-08-23T07:25:15;95703.44;;;15.56;100.00
43878;BME280;29815;48.184;11.268;2022-08-23T07:27:50;95697.81;;;15.67;100.00
43878;BME280;29815;48.184;11.268;2022-08-23T07:30:22;95707.09;;;15.79;100.00
43878;BME280;29815;48.184;11.268;2022-08-23T07:32:52;95701.31;;;16.00;100.00
43878;BME280;29815;48.184;11.268;2022-08-23T07:35:23;95707.06;;;16.12;100.00
43878;BME280;29815;48.184;11.268;2022-08-23T07:37:55;95706.53;;;16.23;100.00
43878;BME280;29815;48.184;11.268;2022-08-23T07:40:34;95714.41;;;16.39;100.00
43878;BME280;29815;48.184;11.268;2022-08-23T07:43:08;95717.59;;;16.54;100.00
43878;BME280;29815;48.184;11.268;2022-08-23T07:45:40;95717.00;;;16.71;100.00
43878;BME280;29815;48.184;11.268;2022-08-23T07:48:11;95722.63;;;16.88;100.00
43878;BME280;29815;48.184;11.268;2022-08-23T07:51:05;95726.19;;;16.98;100.00
43878;BME280;29815;48.184;11.268;2022-08-23T07:53:38;95727.41;;;17.05;100.00
43878;BME280;29815;48.184;11.268;2022-08-23T07:56:17;95724.22;;;17.25;100.00
43878;BME280;29815;48.184;11.268;2022-08-23T07:59:05;95731.84;;;17.37;100.00
43878;BME280;29815;48.184;11.268;2022-08-23T08:01:42;95731.28;;;17.49;100.00
43878;BME280;29815;48.184;11.268;2022-08-23T08:04:13;95732.81;;;17.77;100.00
43878;BME280;29815;48.184;11.268;2022-08-23T08:06:47;95730.72;;;17.83;100.00
43878;BME280;29815;48.184;11.268;2022-08-23T08:09:42;95738.66;;;17.93;100.00
43878;BME280;29815;48.184;11.268;2022-08-23T08:12:15;95731.66;;;18.01;100.00
43878;BME280;29815;48.184;11.268;2022-08-23T08:14:49;95738.97;;;18.22;100.00
43878;BME280;29815;48.184;11.268;2022-08-23T08:17:24;95733.56;;;18.31;100.00
43878;BME280;29815;48.184;11.268;2022-08-23T08:20:05;95734.06;;;18.42;100.00
43878;BME280;29815;48.184;11.268;2022-08-23T08:22:54;95735.75;;;18.60;100.00
43878;BME280;29815;48.184;11.268;2022-08-23T08:25:46;95743.03;;;18.73;100.00
43878;BME280;29815;48.184;11.268;2022-08-23T08:28:18;95736.97;;;18.93;100.00
43878;BME280;29815;48.184;11.268;2022-08-23T08:30:49;95730.09;;;19.05;100.00
43878;BME280;29815;48.184;11.268;2022-08-23T08:33:19;95741.97;;;19.17;100.00
43878;BME280;29815;48.184;11.268;2022-08-23T08:35:52;95735.09;;;19.28;100.00
43878;BME280;29815;48.184;11.268;2022-08-23T08:38:29;95741.84;;;19.40;100.00
43878;BME280;29815;48.184;11.268;2022-08-23T08:41:13;95742.03;;;19.52;100.00
43878;BME280;29815;48.184;11.268;2022-08-23T08:43:54;95739.94;;;19.66;100.00
43878;BME280;29815;48.184;11.268;2022-08-23T08:46:40;95748.91;;;19.84;100.00
43878;BME280;29815;48.184;11.268;2022-08-23T08:49:21;95742.59;;;20.01;100.00
43878;BME280;29815;48.184;11.268;2022-08-23T08:52:08;95740.97;;;20.17;100.00
43878;BME280;29815;48.184;11.268;2022-08-23T08:54:45;95737.84;;;20.36;100.00
43878;BME280;29815;48.184;11.268;2022-08-23T08:57:23;95744.19;;;20.57;100.00
43878;BME280;29815;48.184;11.268;2022-08-23T09:00:00;95743.84;;;20.67;100.00
43878;BME280;29815;48.184;11.268;2022-08-23T09:02:37;95736.81;;;20.87;100.00
43878;BME280;29815;48.184;11.268;2022-08-23T09:05:12;95742.47;;;20.82;100.00
43878;BME280;29815;48.184;11.268;2022-08-23T09:07:53;95741.28;;;20.91;100.00
43878;BME280;29815;48.184;11.268;2022-08-23T09:10:52;95746.53;;;21.05;100.00
43878;BME280;29815;48.184;11.268;2022-08-23T09:13:55;95740.78;;;21.19;95.05
43878;BME280;29815;48.184;11.268;2022-08-23T09:16:48;95748.44;;;21.34;88.32
43878;BME280;29815;48.184;11.268;2022-08-23T09:19:23;95744.97;;;21.46;86.44
43878;BME280;29815;48.184;11.268;2022-08-23T09:21:55;95750.72;;;21.53;87.48
43878;BME280;29815;48.184;11.268;2022-08-23T09:24:26;95748.63;;;21.71;89.56
43878;BME280;29815;48.184;11.268;2022-08-23T09:27:19;95746.53;;;21.88;85.24
43878;BME280;29815;48.184;11.268;2022-08-23T09:29:53;95746.72;;;22.04;83.45
43878;BME280;29815;48.184;11.268;2022-08-23T09:32:27;95739.09;;;22.10;78.15
43878;BME280;29815;48.184;11.268;2022-08-23T09:35:07;95733.50;;;22.18;77.61
43878;BME280;29815;48.184;11.268;2022-08-23T09:37:57;95739.97;;;22.35;71.84
43878;BME280;29815;48.184;11.268;2022-08-23T09:40:33;95735.16;;;22.32;73.76
43878;BME280;29815;48.184;11.268;2022-08-23T09:43:11;95731.06;;;22.50;66.69
43878;BME280;29815;48.184;11.268;2022-08-23T09:45:54;95729.00;;;22.47;71.36
43878;BME280;29815;48.184;11.268;2022-08-23T09:48:36;95730.84;;;22.55;67.97
43878;BME280;29815;48.184;11.268;2022-08-23T09:51:16;95729.56;;;22.52;65.50
43878;BME280;29815;48.184;11.268;2022-08-23T09:53:48;95735.88;;;22.65;67.79
43878;BME280;29815;48.184;11.268;2022-08-23T09:56:22;95737.28;;;22.83;69.19
43878;BME280;29815;48.184;11.268;2022-08-23T09:58:54;95724.69;;;22.94;66.76
43878;BME280;29815;48.184;11.268;2022-08-23T10:01:36;95725.34;;;23.16;68.07
43878;BME280;29815;48.184;11.268;2022-08-23T10:04:14;95721.97;;;23.35;64.32
43878;BME280;29815;48.184;11.268;2022-08-23T10:06:46;95722.88;;;23.51;64.84
43878;BME280;29815;48.184;11.268;2022-08-23T10:09:24;95723.16;;;23.74;62.07
43878;BME280;29815;48.184;11.268;2022-08-23T10:11:56;95727.22;;;23.80;62.85
43878;BME280;29815;48.184;11.268;2022-08-23T10:14:30;95727.53;;;23.90;60.87
43878;BME280;29815;48.184;11.268;2022-08-23T10:17:05;95729.38;;;24.14;57.19
43878;BME280;29815;48.184;11.268;2022-08-23T10:19:43;95724.31;;;24.16;59.67
43878;BME280;29815;48.184;11.268;2022-08-23T10:22:25;95731.75;;;24.16;54.54
43878;BME280;29815;48.184;11.268;2022-08-23T10:25:18;95726.94;;;24.25;52.87
43878;BME280;29815;48.184;11.268;2022-08-23T10:27:57;95718.88;;;24.32;55.37
43878;BME280;29815;48.184;11.268;2022-08-23T10:30:52;95716.94;;;24.33;53.72
43878;BME280;29815;48.184;11.268;2022-08-23T10:33:34;95712.03;;;24.42;53.52
43878;BME280;29815;48.184;11.268;2022-08-23T10:36:13;95716.06;;;24.60;55.11
43878;BME280;29815;48.184;11.268;2022-08-23T10:38:48;95711.31;;;24.76;55.33
43878;BME280;29815;48.184;11.268;2022-08-23T10:41:41;95710.50;;;24.91;54.82
43878;BME280;29815;48.184;11.268;2022-08-23T10:44:26;95708.03;;;25.02;54.10
43878;BME280;29815;48.184;11.268;2022-08-23T10:47:10;95704.94;;;24.88;53.10
43878;BME280;29815;48.184;11.268;2022-08-23T10:49:48;95702.53;;;24.86;54.01
43878;BME280;29815;48.184;11.268;2022-08-23T10:52:21;95704.03;;;25.00;53.47
43878;BME280;29815;48.184;11.268;2022-08-23T10:54:57;95703.59;;;24.98;53.38
43878;BME280;29815;48.184;11.268;2022-08-23T10:57:36;95708.72;;;25.15;50.52
43878;BME280;29815;48.184;11.268;2022-08-23T11:00:11;95707.41;;;25.09;51.53
43878;BME280;29815;48.184;11.268;2022-08-23T11:02:50;95708.50;;;25.23;50.65
43878;BME280;29815;48.184;11.268;2022-08-23T11:05:29;95699.75;;;25.37;51.19
43878;BME280;29815;48.184;11.268;2022-08-23T11:08:07;95700.84;;;25.52;51.53
43878;BME280;29815;48.184;11.268;2022-08-23T11:10:45;95696.41;;;25.63;51.73
43878;BME280;29815;48.184;11.268;2022-08-23T11:13:25;95695.28;;;25.87;48.47
43878;BME280;29815;48.184;11.268;2022-08-23T11:15:57;95695.38;;;25.90;46.44
43878;BME280;29815;48.184;11.268;2022-08-23T11:18:40;95691.66;;;25.83;45.98
43878;BME280;29815;48.184;11.268;2022-08-23T11:21:41;95696.69;;;25.96;46.50
43878;BME280;29815;48.184;11.268;2022-08-23T11:24:32;95692.44;;;26.03;45.01
43878;BME280;29815;48.184;11.268;2022-08-23T11:27:32;95691.47;;;26.14;45.61
43878;BME280;29815;48.184;11.268;2022-08-23T11:30:42;95704.03;;;26.31;47.92
43878;BME280;29815;48.184;11.268;2022-08-23T11:33:18;95694.22;;;26.34;48.44
43878;BME280;29815;48.184;11.268;2022-08-23T11:35:51;95680.16;;;26.65;45.54
43878;BME280;29815;48.184;11.268;2022-08-23T11:39:01;95683.72;;;26.66;47.06
43878;BME280;29815;48.184;11.268;2022-08-23T11:42:03;95685.81;;;26.72;46.94
43878;BME280;29815;48.184;11.268;2022-08-23T11:44:39;95685.31;;;26.67;45.25
43878;BME280;29815;48.184;11.268;2022-08-23T11:47:12;95687.97;;;26.86;47.06
43878;BME280;29815;48.184;11.268;2022-08-23T11:50:05;95682.25;;;26.72;44.14
43878;BME280;29815;48.184;11.268;2022-08-23T11:53:05;95682.41;;;27.05;47.15
43878;BME280;29815;48.184;11.268;2022-08-23T11:56:04;95683.66;;;27.11;44.57
43878;BME280;29815;48.184;11.268;2022-08-23T12:01:52;95681.25;;;27.66;46.71
43878;BME280;29815;48.184;11.268;2022-08-23T12:04:29;95684.91;;;27.74;44.80
43878;BME280;29815;48.184;11.268;2022-08-23T12:07:03;95685.38;;;27.79;44.13
43878;BME280;29815;48.184;11.268;2022-08-23T12:09:54;95688.00;;;27.69;40.83
43878;BME280;29815;48.184;11.268;2022-08-23T12:12:27;95691.88;;;27.60;39.93
43878;BME280;29815;48.184;11.268;2022-08-23T12:15:08;95687.44;;;27.56;40.89
43878;BME280;29815;48.184;11.268;2022-08-23T12:18:12;95685.28;;;27.72;40.52
43878;BME280;29815;48.184;11.268;2022-08-23T12:20:48;95679.22;;;27.96;40.18
43878;BME280;29815;48.184;11.268;2022-08-23T12:23:19;95674.91;;;27.99;41.01
43878;BME280;29815;48.184;11.268;2022-08-23T12:26:00;95679.19;;;28.26;40.80
43878;BME280;29815;48.184;11.268;2022-08-23T12:28:42;95683.19;;;28.33;39.93
43878;BME280;29815;48.184;11.268;2022-08-23T12:31:19;95682.53;;;28.09;39.26
43878;BME280;29815;48.184;11.268;2022-08-23T12:34:21;95684.94;;;28.11;39.12
43878;BME280;29815;48.184;11.268;2022-08-23T12:36:57;95680.97;;;28.08;41.75
43878;BME280;29815;48.184;11.268;2022-08-23T12:39:39;95688.19;;;28.20;38.91
43878;BME280;29815;48.184;11.268;2022-08-23T12:42:18;95680.53;;;28.43;40.54
43878;BME280;29815;48.184;11.268;2022-08-23T12:45:02;95679.19;;;28.71;39.01
43878;BME280;29815;48.184;11.268;2022-08-23T12:47:34;95677.81;;;28.94;41.90
43878;BME280;29815;48.184;11.268;2022-08-23T12:50:19;95673.69;;;29.25;35.45
43878;BME280;29815;48.184;11.268;2022-08-23T12:53:01;95673.50;;;29.01;34.22
43878;BME280;29815;48.184;11.268;2022-08-23T12:55:40;95669.13;;;28.96;33.35
43878;BME280;29815;48.184;11.268;2022-08-23T12:58:12;95673.13;;;29.06;34.80
43878;BME280;29815;48.184;11.268;2022-08-23T13:00:50;95657.31;;;29.06;33.92
43878;BME280;29815;48.184;11.268;2022-08-23T13:03:23;95672.03;;;29.17;39.18
43878;BME280;29815;48.184;11.268;2022-08-23T13:05:58;95665.13;;;29.52;34.48
43878;BME280;29815;48.184;11.268;2022-08-23T13:08:32;95661.63;;;29.73;36.87
43878;BME280;29815;48.184;11.268;2022-08-23T13:11:07;95665.25;;;29.91;34.90
43878;BME280;29815;48.184;11.268;2022-08-23T13:13:41;95659.84;;;30.26;36.26
43878;BME280;29815;48.184;11.268;2022-08-23T13:16:23;95657.91;;;30.59;35.96
43878;BME280;29815;48.184;11.268;2022-08-23T13:18:55;95648.78;;;30.83;32.19
43878;BME280;29815;48.184;11.268;2022-08-23T13:21:44;95641.19;;;31.05;32.90
43878;BME280;29815;48.184;11.268;2022-08-23T13:24:33;95647.50;;;31.38;36.13
43878;BME280;29815;48.184;11.268;2022-08-23T13:27:17;95645.03;;;31.57;34.12
43878;BME280;29815;48.184;11.268;2022-08-23T13:29:51;95637.41;;;31.79;33.32
43878;BME280;29815;48.184;11.268;2022-08-23T13:32:27;95640.81;;;32.12;33.67
43878;BME280;29815;48.184;11.268;2022-08-23T13:35:24;95642.78;;;32.18;29.56
43878;BME280;29815;48.184;11.268;2022-08-23T13:38:10;95641.19;;;32.24;32.44
43878;BME280;29815;48.184;11.268;2022-08-23T13:41:00;95639.72;;;32.57;34.04
43878;BME280;29815;48.184;11.268;2022-08-23T13:43:34;95639.13;;;32.84;32.63
43878;BME280;29815;48.184;11.268;2022-08-23T13:46:11;95644.19;;;32.51;28.55
43878;BME280;29815;48.184;11.268;2022-08-23T13:48:48;95633.16;;;32.30;30.54
43878;BME280;29815;48.184;11.268;2022-08-23T13:51:24;95633.72;;;32.62;32.36
43878;BME280;29815;48.184;11.268;2022-08-23T13:53:59;95622.78;;;32.86;32.37
43878;BME280;29815;48.184;11.268;2022-08-23T13:56:33;95629.28;;;32.76;30.01
43878;BME280;29815;48.184;11.268;2022-08-23T13:59:17;95630.00;;;32.83;28.91
43878;BME280;29815;48.184;11.268;2022-08-23T14:01:54;95627.69;;;32.75;31.34
43878;BME280;29815;48.184;11.268;2022-08-23T14:04:23;95624.13;;;32.74;30.28
43878;BME280;29815;48.184;11.268;2022-08-23T14:06:53;95622.44;;;32.28;30.64
43878;BME280;29815;48.184;11.268;2022-08-23T14:09:23;95616.53;;;32.23;31.90
43878;BME280;29815;48.184;11.268;2022-08-23T14:11:54;95619.75;;;32.66;31.68
43878;BME280;29815;48.184;11.268;2022-08-23T14:14:26;95621.09;;;32.99;31.46
43878;BME280;29815;48.184;11.268;2022-08-23T14:17:01;95618.75;;;33.35;30.76
43878;BME280;29815;48.184;11.268;2022-08-23T14:19:31;95615.75;;;33.53;30.85
43878;BME280;29815;48.184;11.268;2022-08-23T14:22:20;95621.44;;;33.42;29.36
43878;BME280;29815;48.184;11.268;2022-08-23T14:24:51;95620.63;;;33.45;29.14